createdAt,value
2017-05-31T00:00:27.414Z,1011.68
2017-05-31T00:01:28.874Z,1011.67
2017-05-31T00:02:30.352Z,1011.71
2017-05-31T00:03:31.815Z,1011.73
2017-05-31T00:04:33.268Z,1011.75
2017-05-31T00:05:34.723Z,1011.71
2017-05-31T00:06:36.179Z,1011.73
2017-05-31T00:07:37.640Z,1011.74
2017-05-31T00:08:39.097Z,1011.74
2017-05-31T00:09:40.562Z,1011.77
2017-05-31T00:10:42.018Z,1011.74
2017-05-31T00:11:43.481Z,1011.76
2017-05-31T00:12:44.934Z,1011.76
2017-05-31T00:13:46.394Z,1011.79
2017-05-31T00:14:47.854Z,1011.74
2017-05-31T00:15:49.310Z,1011.76
2017-05-31T00:16:50.779Z,1011.75
2017-05-31T00:17:52.231Z,1011.75
2017-05-31T00:18:53.684Z,1011.78
2017-05-31T00:19:55.143Z,1011.77
2017-05-31T00:20:56.602Z,1011.80
2017-05-31T00:21:58.078Z,1011.75
2017-05-31T00:22:59.534Z,1011.80
2017-05-31T00:24:00.988Z,1011.83
2017-05-31T00:25:02.466Z,1011.85
2017-05-31T00:26:03.933Z,1011.80
2017-05-31T00:27:05.387Z,1011.79
2017-05-31T00:28:06.847Z,1011.79
2017-05-31T00:29:08.323Z,1011.87
2017-05-31T00:30:09.789Z,1011.84
2017-05-31T00:31:11.244Z,1011.85
2017-05-31T00:32:12.695Z,1011.87
2017-05-31T00:33:14.176Z,1011.88
2017-05-31T00:34:15.639Z,1011.87
2017-05-31T00:35:17.096Z,1011.91
2017-05-31T00:36:18.565Z,1011.89
2017-05-31T00:37:20.016Z,1011.91
2017-05-31T00:38:21.469Z,1011.91
2017-05-31T00:39:22.928Z,1011.90
2017-05-31T00:40:24.389Z,1011.95
2017-05-31T00:41:25.843Z,1011.96
2017-05-31T00:42:27.307Z,1011.96
2017-05-31T00:43:28.773Z,1011.95
2017-05-31T00:44:30.227Z,1012.01
2017-05-31T00:45:31.691Z,1012.02
2017-05-31T00:46:33.340Z,1011.99
2017-05-31T00:47:34.808Z,1012.00
2017-05-31T00:48:36.302Z,1012.00
2017-05-31T00:49:37.761Z,1011.99
2017-05-31T00:50:39.212Z,1012.00
2017-05-31T00:51:40.669Z,1012.00
2017-05-31T00:52:42.128Z,1012.02
2017-05-31T00:53:43.592Z,1011.99
2017-05-31T00:54:45.057Z,1012.02
2017-05-31T00:55:46.523Z,1012.02
2017-05-31T00:56:47.997Z,1012.02
2017-05-31T00:57:49.456Z,1012.01
2017-05-31T00:58:50.952Z,1011.99
2017-05-31T00:59:52.598Z,1012.01
2017-05-31T01:00:54.055Z,1012.01
2017-05-31T01:01:55.519Z,1012.02
2017-05-31T01:02:56.975Z,1012.00
2017-05-31T01:03:58.438Z,1012.02
2017-05-31T01:04:59.900Z,1012.02
2017-05-31T01:06:01.363Z,1012.08
2017-05-31T01:07:02.811Z,1012.01
2017-05-31T01:08:04.273Z,1012.04
2017-05-31T01:09:05.730Z,1012.06
2017-05-31T01:10:07.189Z,1012.05
2017-05-31T01:11:08.662Z,1012.01
2017-05-31T01:12:10.122Z,1012.09
2017-05-31T01:13:11.573Z,1012.09
2017-05-31T01:14:13.040Z,1012.13
2017-05-31T01:15:14.498Z,1012.12
2017-05-31T01:16:15.955Z,1012.12
2017-05-31T01:17:17.406Z,1012.13
2017-05-31T01:18:18.860Z,1012.12
2017-05-31T01:19:20.318Z,1012.10
2017-05-31T01:20:21.806Z,1012.07
2017-05-31T01:21:23.262Z,1012.07
2017-05-31T01:22:24.731Z,1012.08
2017-05-31T01:23:26.193Z,1012.08
2017-05-31T01:24:27.650Z,1012.05
2017-05-31T01:25:29.157Z,1012.10
2017-05-31T01:26:30.571Z,1012.09
2017-05-31T01:27:32.035Z,1012.10
2017-05-31T01:28:33.486Z,1012.09
2017-05-31T01:29:34.950Z,1012.08
2017-05-31T01:30:36.401Z,1012.11
2017-05-31T01:31:37.862Z,1012.13
2017-05-31T01:32:39.342Z,1012.13
2017-05-31T01:33:40.801Z,1012.13
2017-05-31T01:34:42.264Z,1012.16
2017-05-31T01:35:43.721Z,1012.14
2017-05-31T01:36:45.179Z,1012.17
2017-05-31T01:37:46.629Z,1012.13
2017-05-31T01:38:48.100Z,1012.17
2017-05-31T01:39:49.549Z,1012.17
2017-05-31T01:40:51.009Z,1012.18
2017-05-31T01:41:52.474Z,1012.19
2017-05-31T01:42:53.932Z,1012.21
2017-05-31T01:43:55.382Z,1012.22
2017-05-31T01:44:56.836Z,1012.25
2017-05-31T01:45:58.289Z,1012.24
2017-05-31T01:46:59.747Z,1012.24
2017-05-31T01:48:01.203Z,1012.25
2017-05-31T01:49:02.665Z,1012.25
2017-05-31T01:50:04.141Z,1012.29
2017-05-31T01:51:05.596Z,1012.31
2017-05-31T01:52:07.051Z,1012.29
2017-05-31T01:53:08.507Z,1012.27
2017-05-31T01:54:09.971Z,1012.35
2017-05-31T01:55:11.427Z,1012.31
2017-05-31T01:56:12.892Z,1012.34
2017-05-31T01:57:14.344Z,1012.31
2017-05-31T01:58:15.807Z,1012.30
2017-05-31T01:59:17.256Z,1012.30
2017-05-31T02:00:18.711Z,1012.34
2017-05-31T02:01:20.174Z,1012.33
2017-05-31T02:02:21.635Z,1012.31
2017-05-31T02:03:23.091Z,1012.34
2017-05-31T02:04:24.544Z,1012.34
2017-05-31T02:05:26.001Z,1012.30
2017-05-31T02:06:27.468Z,1012.35
2017-05-31T02:07:28.927Z,1012.31
2017-05-31T02:08:30.381Z,1012.30
2017-05-31T02:09:31.851Z,1012.27
2017-05-31T02:10:33.299Z,1012.28
2017-05-31T02:11:34.752Z,1012.31
2017-05-31T02:12:36.219Z,1012.28
2017-05-31T02:13:37.671Z,1012.26
2017-05-31T02:14:39.125Z,1012.28
2017-05-31T02:15:40.591Z,1012.22
2017-05-31T02:16:42.061Z,1012.22
2017-05-31T02:17:43.517Z,1012.19
2017-05-31T02:18:44.968Z,1012.23
2017-05-31T02:19:46.422Z,1012.25
2017-05-31T02:20:47.911Z,1012.30
2017-05-31T02:21:49.367Z,1012.26
2017-05-31T02:22:50.829Z,1012.26
2017-05-31T02:23:52.277Z,1012.28
2017-05-31T02:24:53.735Z,1012.27
2017-05-31T02:25:55.201Z,1012.33
2017-05-31T02:26:56.664Z,1012.26
2017-05-31T02:27:58.118Z,1012.30
2017-05-31T02:28:59.570Z,1012.31
2017-05-31T02:30:01.025Z,1012.31
2017-05-31T02:31:02.481Z,1012.30
2017-05-31T02:32:03.940Z,1012.31
2017-05-31T02:33:05.393Z,1012.31
2017-05-31T02:34:06.852Z,1012.28
2017-05-31T02:35:08.335Z,1012.30
2017-05-31T02:36:09.834Z,1012.27
2017-05-31T02:37:11.288Z,1012.34
2017-05-31T02:38:12.752Z,1012.31
2017-05-31T02:39:14.226Z,1012.32
2017-05-31T02:40:15.687Z,1012.35
2017-05-31T02:41:17.151Z,1012.33
2017-05-31T02:42:18.722Z,1012.30
2017-05-31T02:43:20.169Z,1012.36
2017-05-31T02:44:21.638Z,1012.34
2017-05-31T02:45:23.116Z,1012.32
2017-05-31T02:46:24.638Z,1012.34
2017-05-31T02:47:26.092Z,1012.32
2017-05-31T02:48:27.549Z,1012.32
2017-05-31T02:49:29.018Z,1012.33
2017-05-31T02:50:30.473Z,1012.31
2017-05-31T02:51:31.934Z,1012.31
2017-05-31T02:52:33.395Z,1012.33
2017-05-31T02:53:34.864Z,1012.30
2017-05-31T02:54:36.320Z,1012.30
2017-05-31T02:55:37.773Z,1012.29
2017-05-31T02:56:39.243Z,1012.33
2017-05-31T02:57:40.724Z,1012.32
2017-05-31T02:58:42.156Z,1012.33
2017-05-31T02:59:43.614Z,1012.35
2017-05-31T03:00:45.081Z,1012.31
2017-05-31T03:01:46.543Z,1012.34
2017-05-31T03:02:47.993Z,1012.33
2017-05-31T03:03:49.507Z,1012.40
2017-05-31T03:04:50.915Z,1012.42
2017-05-31T03:05:52.379Z,1012.40
2017-05-31T03:06:53.832Z,1012.44
2017-05-31T03:07:55.342Z,1012.39
2017-05-31T03:08:56.800Z,1012.41
2017-05-31T03:09:58.251Z,1012.40
2017-05-31T03:10:59.712Z,1012.43
2017-05-31T03:12:01.207Z,1012.40
2017-05-31T03:13:02.659Z,1012.40
2017-05-31T03:14:04.121Z,1012.44
2017-05-31T03:15:05.579Z,1012.42
2017-05-31T03:16:08.944Z,1012.41
2017-05-31T03:17:10.412Z,1012.47
2017-05-31T03:18:11.893Z,1012.45
2017-05-31T03:19:13.342Z,1012.46
2017-05-31T03:20:14.799Z,1012.42
2017-05-31T03:21:16.263Z,1012.46
2017-05-31T03:22:17.734Z,1012.47
2017-05-31T03:23:19.192Z,1012.45
2017-05-31T03:24:20.741Z,1012.40
2017-05-31T03:25:22.207Z,1012.45
2017-05-31T03:26:23.663Z,1012.44
2017-05-31T03:27:25.121Z,1012.47
2017-05-31T03:28:26.587Z,1012.44
2017-05-31T03:29:28.043Z,1012.43
2017-05-31T03:30:29.497Z,1012.49
2017-05-31T03:31:30.955Z,1012.42
2017-05-31T03:32:32.419Z,1012.47
2017-05-31T03:33:33.882Z,1012.42
2017-05-31T03:34:35.339Z,1012.45
2017-05-31T03:35:36.798Z,1012.42
2017-05-31T03:36:38.259Z,1012.44
2017-05-31T03:37:39.724Z,1012.43
2017-05-31T03:38:41.186Z,1012.48
2017-05-31T03:39:42.648Z,1012.51
2017-05-31T03:40:44.102Z,1012.52
2017-05-31T03:41:45.573Z,1012.50
2017-05-31T03:42:47.036Z,1012.51
2017-05-31T03:43:48.500Z,1012.53
2017-05-31T03:44:49.997Z,1012.52
2017-05-31T03:45:51.462Z,1012.54
2017-05-31T03:46:52.925Z,1012.54
2017-05-31T03:47:54.391Z,1012.50
2017-05-31T03:48:55.852Z,1012.57
2017-05-31T03:49:57.315Z,1012.53
2017-05-31T03:50:58.793Z,1012.55
2017-05-31T03:52:00.256Z,1012.59
2017-05-31T03:53:01.721Z,1012.61
2017-05-31T03:54:03.243Z,1012.59
2017-05-31T03:55:04.605Z,1012.65
2017-05-31T03:56:06.804Z,1012.64
2017-05-31T03:57:08.264Z,1012.66
2017-05-31T03:58:09.728Z,1012.69
2017-05-31T03:59:11.186Z,1012.70
2017-05-31T04:00:12.640Z,1012.77
2017-05-31T04:01:14.101Z,1012.79
2017-05-31T04:02:15.564Z,1012.85
2017-05-31T04:03:17.029Z,1012.85
2017-05-31T04:04:18.491Z,1012.82
2017-05-31T04:05:19.952Z,1012.87
2017-05-31T04:06:21.412Z,1012.82
2017-05-31T04:07:22.873Z,1012.90
2017-05-31T04:08:24.340Z,1012.86
2017-05-31T04:09:25.799Z,1012.89
2017-05-31T04:10:27.269Z,1012.88
2017-05-31T04:11:28.723Z,1012.86
2017-05-31T04:12:30.236Z,1012.88
2017-05-31T04:13:31.650Z,1012.91
2017-05-31T04:14:33.124Z,1012.88
2017-05-31T04:15:34.582Z,1012.89
2017-05-31T04:16:36.042Z,1012.91
2017-05-31T04:17:37.508Z,1012.87
2017-05-31T04:18:38.970Z,1012.92
2017-05-31T04:19:40.435Z,1012.97
2017-05-31T04:20:41.899Z,1012.95
2017-05-31T04:21:43.366Z,1012.95
2017-05-31T04:22:44.830Z,1012.99
2017-05-31T04:23:46.290Z,1013.01
2017-05-31T04:24:47.770Z,1012.99
2017-05-31T04:25:49.233Z,1013.02
2017-05-31T04:26:50.706Z,1013.07
2017-05-31T04:27:52.171Z,1013.04
2017-05-31T04:28:53.631Z,1013.10
2017-05-31T04:29:55.098Z,1013.13
2017-05-31T04:30:56.556Z,1013.16
2017-05-31T04:31:58.016Z,1013.17
2017-05-31T04:32:59.485Z,1013.17
2017-05-31T04:34:00.952Z,1013.19
2017-05-31T04:35:02.408Z,1013.23
2017-05-31T04:36:03.879Z,1013.23
2017-05-31T04:37:05.344Z,1013.20
2017-05-31T04:38:06.806Z,1013.25
2017-05-31T04:39:08.269Z,1013.23
2017-05-31T04:40:09.736Z,1013.25
2017-05-31T04:41:11.205Z,1013.31
2017-05-31T04:42:12.672Z,1013.29
2017-05-31T04:43:14.146Z,1013.26
2017-05-31T04:44:15.607Z,1013.25
2017-05-31T04:45:17.067Z,1013.29
2017-05-31T04:46:18.547Z,1013.32
2017-05-31T04:47:20.022Z,1013.38
2017-05-31T04:48:21.493Z,1013.40
2017-05-31T04:49:22.954Z,1013.40
2017-05-31T04:50:24.417Z,1013.45
2017-05-31T04:51:25.886Z,1013.46
2017-05-31T04:52:27.341Z,1013.49
2017-05-31T04:53:28.812Z,1013.47
2017-05-31T04:54:30.275Z,1013.49
2017-05-31T04:55:31.736Z,1013.48
2017-05-31T04:56:33.215Z,1013.52
2017-05-31T04:57:34.676Z,1013.51
2017-05-31T04:58:36.145Z,1013.52
2017-05-31T04:59:37.606Z,1013.48
2017-05-31T05:00:39.084Z,1013.55
2017-05-31T05:01:40.552Z,1013.50
2017-05-31T05:02:42.020Z,1013.48
2017-05-31T05:03:43.494Z,1013.48
2017-05-31T05:04:44.956Z,1013.50
2017-05-31T05:05:46.440Z,1013.61
2017-05-31T05:06:47.907Z,1013.55
2017-05-31T05:07:49.397Z,1013.54
2017-05-31T05:08:50.854Z,1013.58
2017-05-31T05:09:52.322Z,1013.59
2017-05-31T05:10:53.796Z,1013.62
2017-05-31T05:11:55.261Z,1013.59
2017-05-31T05:12:56.753Z,1013.67
2017-05-31T05:13:58.224Z,1013.58
2017-05-31T05:14:59.697Z,1013.64
2017-05-31T05:16:01.170Z,1013.64
2017-05-31T05:17:02.649Z,1013.67
2017-05-31T05:18:04.159Z,1013.59
2017-05-31T05:19:05.627Z,1013.60
2017-05-31T05:20:07.094Z,1013.64
2017-05-31T05:21:08.568Z,1013.53
2017-05-31T05:22:10.032Z,1013.54
2017-05-31T05:23:11.500Z,1013.65
2017-05-31T05:24:12.968Z,1013.67
2017-05-31T05:25:14.435Z,1013.70
2017-05-31T05:26:15.907Z,1013.66
2017-05-31T05:27:17.373Z,1013.76
2017-05-31T05:28:18.843Z,1013.81
2017-05-31T05:29:20.312Z,1013.80
2017-05-31T05:30:21.784Z,1013.74
2017-05-31T05:31:23.269Z,1013.73
2017-05-31T05:32:24.744Z,1013.77
2017-05-31T05:33:26.215Z,1013.79
2017-05-31T05:34:27.685Z,1013.86
2017-05-31T05:35:29.168Z,1013.83
2017-05-31T05:36:30.649Z,1013.81
2017-05-31T05:37:32.115Z,1013.82
2017-05-31T05:38:33.589Z,1013.80
2017-05-31T05:39:35.065Z,1013.89
2017-05-31T05:40:36.544Z,1013.90
2017-05-31T05:41:38.011Z,1013.86
2017-05-31T05:42:39.490Z,1013.79
2017-05-31T05:43:40.974Z,1013.80
2017-05-31T05:44:42.444Z,1013.94
2017-05-31T05:45:43.913Z,1014.04
2017-05-31T05:46:45.393Z,1013.95
2017-05-31T05:47:46.874Z,1013.98
2017-05-31T05:48:48.348Z,1013.95
2017-05-31T05:49:49.821Z,1013.96
2017-05-31T05:50:51.286Z,1013.98
2017-05-31T05:51:52.761Z,1014.02
2017-05-31T05:52:54.261Z,1014.05
2017-05-31T05:53:55.733Z,1014.10
2017-05-31T05:54:57.205Z,1014.12
2017-05-31T05:55:58.695Z,1014.11
2017-05-31T05:57:00.165Z,1014.11
2017-05-31T05:58:01.641Z,1014.16
2017-05-31T05:59:03.121Z,1014.16
2017-05-31T06:00:04.594Z,1014.13
2017-05-31T06:01:06.090Z,1014.20
2017-05-31T06:02:07.561Z,1014.25
2017-05-31T06:03:09.024Z,1014.22
2017-05-31T06:04:10.502Z,1014.24
2017-05-31T06:05:11.967Z,1014.26
2017-05-31T06:06:13.444Z,1014.31
2017-05-31T06:07:14.927Z,1014.36
2017-05-31T06:08:16.393Z,1014.40
2017-05-31T06:09:17.875Z,1014.39
2017-05-31T06:10:19.348Z,1014.31
2017-05-31T06:11:20.820Z,1014.43
2017-05-31T06:12:22.303Z,1014.46
2017-05-31T06:13:23.790Z,1014.48
2017-05-31T06:14:25.267Z,1014.50
2017-05-31T06:15:26.735Z,1014.51
2017-05-31T06:16:28.213Z,1014.55
2017-05-31T06:17:29.681Z,1014.55
2017-05-31T06:18:31.163Z,1014.58
2017-05-31T06:19:32.640Z,1014.51
2017-05-31T06:20:34.113Z,1014.59
2017-05-31T06:21:35.590Z,1014.56
2017-05-31T06:22:37.066Z,1014.63
2017-05-31T06:23:38.548Z,1014.65
2017-05-31T06:24:40.028Z,1014.66
2017-05-31T06:25:41.510Z,1014.67
2017-05-31T06:26:42.985Z,1014.71
2017-05-31T06:27:44.460Z,1014.77
2017-05-31T06:28:45.940Z,1014.78
2017-05-31T06:29:47.413Z,1014.81
2017-05-31T06:30:48.885Z,1014.84
2017-05-31T06:31:50.355Z,1014.92
2017-05-31T06:32:51.824Z,1014.84
2017-05-31T06:33:53.314Z,1014.89
2017-05-31T06:34:54.791Z,1014.89
2017-05-31T06:35:56.268Z,1014.83
2017-05-31T06:36:57.745Z,1014.82
2017-05-31T06:37:59.254Z,1014.84
2017-05-31T06:39:00.730Z,1014.84
2017-05-31T06:40:02.235Z,1014.82
2017-05-31T06:41:03.709Z,1014.91
2017-05-31T06:42:05.180Z,1015.09
2017-05-31T06:43:06.665Z,1015.13
2017-05-31T06:44:08.149Z,1015.12
2017-05-31T06:45:09.622Z,1015.11
2017-05-31T06:46:11.123Z,1015.16
2017-05-31T06:47:12.601Z,1015.25
2017-05-31T06:48:14.080Z,1015.48
2017-05-31T06:49:15.554Z,1015.74
2017-05-31T06:50:17.029Z,1015.90
2017-05-31T06:51:18.510Z,1015.78
2017-05-31T06:52:20.005Z,1015.81
2017-05-31T06:53:21.480Z,1016.82
2017-05-31T06:54:22.964Z,1016.48
2017-05-31T06:55:24.480Z,1015.95
2017-05-31T06:56:25.968Z,1016.13
2017-05-31T06:57:27.458Z,1016.82
2017-05-31T06:58:28.957Z,1017.21
2017-05-31T06:59:30.439Z,1016.46
2017-05-31T07:00:31.930Z,1016.05
2017-05-31T07:01:33.414Z,1015.84
2017-05-31T07:02:34.891Z,1015.87
2017-05-31T07:03:36.369Z,1015.88
2017-05-31T07:04:37.845Z,1015.85
2017-05-31T07:05:39.324Z,1015.82
2017-05-31T07:06:40.804Z,1015.88
2017-05-31T07:07:42.291Z,1015.98
2017-05-31T07:08:43.778Z,1016.03
2017-05-31T07:09:45.263Z,1016.10
2017-05-31T07:10:46.737Z,1016.13
2017-05-31T07:11:48.221Z,1016.00
2017-05-31T07:12:49.733Z,1015.50
2017-05-31T07:13:51.211Z,1015.89
2017-05-31T07:14:52.697Z,1015.69
2017-05-31T07:15:54.175Z,1016.06
2017-05-31T07:16:55.671Z,1015.40
2017-05-31T07:17:57.153Z,1015.02
2017-05-31T07:18:58.629Z,1015.93
2017-05-31T07:20:00.104Z,1015.95
2017-05-31T07:21:01.609Z,1016.02
2017-05-31T07:22:03.084Z,1016.01
2017-05-31T07:23:04.566Z,1015.98
2017-05-31T07:24:06.045Z,1015.98
2017-05-31T07:25:07.517Z,1016.00
2017-05-31T07:26:09.002Z,1015.99
2017-05-31T07:27:10.477Z,1015.98
2017-05-31T07:28:11.952Z,1015.91
2017-05-31T07:29:13.426Z,1015.45
2017-05-31T07:30:14.909Z,1015.94
2017-05-31T07:31:16.391Z,1015.97
2017-05-31T07:32:17.867Z,1015.93
2017-05-31T07:33:19.348Z,1015.11
2017-05-31T07:34:20.977Z,1016.03
2017-05-31T07:35:22.367Z,1016.04
2017-05-31T07:36:23.858Z,1015.92
2017-05-31T07:37:25.334Z,1015.96
2017-05-31T07:38:26.827Z,1016.01
2017-05-31T07:39:28.313Z,1015.92
2017-05-31T07:40:29.792Z,1015.73
2017-05-31T07:41:31.288Z,1015.29
2017-05-31T07:42:32.761Z,1015.78
2017-05-31T07:43:34.242Z,1015.76
2017-05-31T07:44:35.726Z,1015.86
2017-05-31T07:45:37.214Z,1015.87
2017-05-31T07:46:38.689Z,1015.73
2017-05-31T07:47:40.189Z,1015.68
2017-05-31T07:48:41.676Z,1015.71
2017-05-31T07:49:43.173Z,1015.71
2017-05-31T07:50:44.626Z,1015.26
2017-05-31T07:51:46.106Z,1015.61
2017-05-31T07:52:47.620Z,1015.63
2017-05-31T07:53:49.109Z,1015.60
2017-05-31T07:54:50.595Z,1015.60
2017-05-31T07:55:52.074Z,1015.62
2017-05-31T07:56:53.566Z,1015.62
2017-05-31T07:57:55.042Z,1015.63
2017-05-31T07:58:56.519Z,1015.33
2017-05-31T07:59:58.011Z,1015.32
2017-05-31T08:00:59.524Z,1015.54
2017-05-31T08:02:01.003Z,1015.32
2017-05-31T08:03:02.477Z,1015.19
2017-05-31T08:04:03.957Z,1015.21
2017-05-31T08:05:05.439Z,1015.52
2017-05-31T08:06:06.919Z,1015.40
2017-05-31T08:07:08.391Z,1015.44
2017-05-31T08:08:09.873Z,1015.44
2017-05-31T08:09:11.355Z,1015.51
2017-05-31T08:10:12.831Z,1015.53
2017-05-31T08:11:14.365Z,1015.49
2017-05-31T08:12:15.741Z,1015.37
2017-05-31T08:13:17.248Z,1015.48
2017-05-31T08:14:18.720Z,1015.57
2017-05-31T08:15:20.205Z,1015.53
2017-05-31T08:16:21.690Z,1015.67
2017-05-31T08:17:23.183Z,1015.64
2017-05-31T08:18:24.662Z,1015.70
2017-05-31T08:19:26.147Z,1015.47
2017-05-31T08:20:27.628Z,1015.62
2017-05-31T08:21:29.113Z,1015.39
2017-05-31T08:22:30.600Z,1015.33
2017-05-31T08:23:32.086Z,1015.37
2017-05-31T08:24:33.563Z,1015.37
2017-05-31T08:25:35.041Z,1015.41
2017-05-31T08:26:36.515Z,1015.44
2017-05-31T08:27:37.991Z,1015.39
2017-05-31T08:28:39.481Z,1015.50
2017-05-31T08:29:40.962Z,1015.47
2017-05-31T08:30:42.455Z,1015.55
2017-05-31T08:31:43.931Z,1015.56
2017-05-31T08:32:45.402Z,1015.53
2017-05-31T08:33:46.879Z,1015.57
2017-05-31T08:34:48.359Z,1015.57
2017-05-31T08:35:49.835Z,1015.41
2017-05-31T08:36:51.325Z,1015.38
2017-05-31T08:37:52.802Z,1015.42
2017-05-31T08:38:54.298Z,1015.55
2017-05-31T08:39:55.772Z,1015.42
2017-05-31T08:40:57.246Z,1015.51
2017-05-31T08:41:58.725Z,1015.57
2017-05-31T08:43:00.221Z,1015.41
2017-05-31T08:44:01.709Z,1015.44
2017-05-31T08:45:03.198Z,1015.46
2017-05-31T08:46:07.460Z,1015.50
2017-05-31T08:47:08.938Z,1015.35
2017-05-31T08:48:10.417Z,1015.40
2017-05-31T08:49:11.899Z,1015.38
2017-05-31T08:50:13.373Z,1015.40
2017-05-31T08:51:14.849Z,1015.40
2017-05-31T08:52:16.333Z,1015.55
2017-05-31T08:53:17.808Z,1015.51
2017-05-31T08:54:19.286Z,1015.57
2017-05-31T08:55:20.760Z,1015.65
2017-05-31T08:56:22.316Z,1015.77
2017-05-31T08:57:23.796Z,1015.57
2017-05-31T08:58:25.275Z,1015.44
2017-05-31T08:59:26.751Z,1015.58
2017-05-31T09:00:28.262Z,1015.56
2017-05-31T09:01:29.730Z,1015.49
2017-05-31T09:02:31.204Z,1015.51
2017-05-31T09:03:32.681Z,1015.51
2017-05-31T09:04:34.152Z,1015.51
2017-05-31T09:05:35.638Z,1015.55
2017-05-31T09:06:37.114Z,1015.57
2017-05-31T09:07:38.585Z,1015.63
2017-05-31T09:08:40.065Z,1015.64
2017-05-31T09:09:41.549Z,1015.61
2017-05-31T09:10:43.037Z,1015.68
2017-05-31T09:11:44.513Z,1015.53
2017-05-31T09:12:45.995Z,1015.65
2017-05-31T09:13:47.472Z,1015.61
2017-05-31T09:14:48.943Z,1015.63
2017-05-31T09:15:50.415Z,1015.59
2017-05-31T09:16:51.887Z,1015.60
2017-05-31T09:17:53.365Z,1015.55
2017-05-31T09:18:54.836Z,1015.53
2017-05-31T09:19:56.311Z,1015.58
2017-05-31T09:20:57.788Z,1015.60
2017-05-31T09:21:59.273Z,1015.57
2017-05-31T09:23:00.741Z,1015.67
2017-05-31T09:24:02.219Z,1015.70
2017-05-31T09:25:03.689Z,1015.68
2017-05-31T09:26:05.175Z,1015.61
2017-05-31T09:27:06.645Z,1015.79
2017-05-31T09:28:08.118Z,1015.56
2017-05-31T09:29:09.590Z,1015.52
2017-05-31T09:30:11.080Z,1015.52
2017-05-31T09:31:12.553Z,1015.54
2017-05-31T09:32:14.026Z,1015.55
2017-05-31T09:33:15.512Z,1015.47
2017-05-31T09:34:16.985Z,1015.41
2017-05-31T09:35:18.456Z,1015.44
2017-05-31T09:36:19.930Z,1015.54
2017-05-31T09:37:21.406Z,1015.68
2017-05-31T09:38:22.886Z,1015.65
2017-05-31T09:39:24.364Z,1015.86
2017-05-31T09:40:25.843Z,1015.90
2017-05-31T09:41:27.315Z,1015.91
2017-05-31T09:42:28.793Z,1015.95
2017-05-31T09:43:30.283Z,1015.86
2017-05-31T09:44:31.773Z,1015.85
2017-05-31T09:45:33.251Z,1015.84
2017-05-31T09:46:34.722Z,1015.90
2017-05-31T09:47:36.261Z,1015.82
2017-05-31T09:48:37.744Z,1015.78
2017-05-31T09:49:39.220Z,1015.90
2017-05-31T09:50:40.709Z,1015.65
2017-05-31T09:51:42.199Z,1015.82
2017-05-31T09:52:43.674Z,1015.84
2017-05-31T09:53:45.154Z,1015.68
2017-05-31T09:54:46.649Z,1016.03
2017-05-31T09:55:48.139Z,1015.59
2017-05-31T09:56:49.628Z,1015.62
2017-05-31T09:57:51.108Z,1015.79
2017-05-31T09:58:52.586Z,1015.79
2017-05-31T09:59:54.055Z,1015.73
2017-05-31T10:00:55.529Z,1015.95
2017-05-31T10:01:57.006Z,1015.97
2017-05-31T10:02:58.483Z,1015.75
2017-05-31T10:03:59.973Z,1015.79
2017-05-31T10:05:01.458Z,1015.78
2017-05-31T10:06:04.862Z,1015.98
2017-05-31T10:07:05.652Z,1015.85
2017-05-31T10:08:07.130Z,1015.79
2017-05-31T10:09:08.643Z,1015.99
2017-05-31T10:10:10.083Z,1015.94
2017-05-31T10:11:11.565Z,1015.74
2017-05-31T10:12:13.044Z,1015.60
2017-05-31T10:13:14.541Z,1015.59
2017-05-31T10:14:16.034Z,1015.66
2017-05-31T10:15:17.523Z,1015.68
2017-05-31T10:16:19.002Z,1015.61
2017-05-31T10:17:20.475Z,1015.59
2017-05-31T10:18:21.953Z,1015.64
2017-05-31T10:19:23.432Z,1015.63
2017-05-31T10:20:24.903Z,1015.68
2017-05-31T10:21:26.378Z,1015.63
2017-05-31T10:22:27.861Z,1015.58
2017-05-31T10:23:29.356Z,1015.58
2017-05-31T10:24:30.845Z,1015.62
2017-05-31T10:25:32.329Z,1015.55
2017-05-31T10:26:33.819Z,1015.64
2017-05-31T10:27:35.292Z,1015.58
2017-05-31T10:28:36.768Z,1015.63
2017-05-31T10:29:38.259Z,1015.59
2017-05-31T10:30:39.739Z,1015.60
2017-05-31T10:31:41.212Z,1015.62
2017-05-31T10:32:42.707Z,1016.02
2017-05-31T10:33:44.187Z,1016.07
2017-05-31T10:34:45.682Z,1016.18
2017-05-31T10:35:47.156Z,1016.17
2017-05-31T10:36:48.629Z,1016.22
2017-05-31T10:37:50.109Z,1016.11
2017-05-31T10:38:51.581Z,1016.18
2017-05-31T10:39:53.067Z,1016.29
2017-05-31T10:40:54.555Z,1016.43
2017-05-31T10:41:56.047Z,1016.38
2017-05-31T10:42:57.527Z,1016.34
2017-05-31T10:43:59.014Z,1016.22
2017-05-31T10:45:00.493Z,1016.12
2017-05-31T10:46:01.976Z,1015.85
2017-05-31T10:47:03.463Z,1015.98
2017-05-31T10:48:04.943Z,1015.85
2017-05-31T10:49:06.433Z,1015.58
2017-05-31T10:50:07.906Z,1015.51
2017-05-31T10:51:09.400Z,1015.49
2017-05-31T10:52:10.877Z,1015.46
2017-05-31T10:53:12.360Z,1015.51
2017-05-31T10:54:13.842Z,1015.42
2017-05-31T10:55:15.321Z,1015.50
2017-05-31T10:56:16.911Z,1015.51
2017-05-31T10:57:18.386Z,1015.48
2017-05-31T10:58:19.867Z,1015.51
2017-05-31T10:59:21.339Z,1015.56
2017-05-31T11:00:22.842Z,1015.62
2017-05-31T11:01:24.330Z,1015.66
2017-05-31T11:02:25.799Z,1015.73
2017-05-31T11:03:27.278Z,1015.80
2017-05-31T11:04:28.754Z,1015.78
2017-05-31T11:05:30.233Z,1015.73
2017-05-31T11:06:31.711Z,1015.66
2017-05-31T11:07:33.183Z,1015.67
2017-05-31T11:08:34.672Z,1015.65
2017-05-31T11:09:36.155Z,1015.62
2017-05-31T11:10:37.629Z,1015.60
2017-05-31T11:11:39.114Z,1015.86
2017-05-31T11:12:40.594Z,1015.83
2017-05-31T11:13:42.129Z,1015.87
2017-05-31T11:14:43.618Z,1015.86
2017-05-31T11:15:45.122Z,1015.87
2017-05-31T11:16:46.595Z,1015.84
2017-05-31T11:17:48.126Z,1015.81
2017-05-31T11:18:49.604Z,1015.82
2017-05-31T11:19:51.098Z,1015.83
2017-05-31T11:20:52.589Z,1015.87
2017-05-31T11:21:54.071Z,1015.92
2017-05-31T11:22:55.560Z,1015.89
2017-05-31T11:23:57.038Z,1015.82
2017-05-31T11:24:58.529Z,1015.78
2017-05-31T11:26:00.005Z,1015.77
2017-05-31T11:27:01.486Z,1015.79
2017-05-31T11:28:02.990Z,1015.85
2017-05-31T11:29:04.469Z,1015.80
2017-05-31T11:30:05.954Z,1015.79
2017-05-31T11:31:07.525Z,1015.67
2017-05-31T11:32:08.987Z,1015.84
2017-05-31T11:33:10.466Z,1016.01
2017-05-31T11:34:11.941Z,1015.98
2017-05-31T11:35:13.442Z,1015.95
2017-05-31T11:36:14.957Z,1016.00
2017-05-31T11:37:16.476Z,1015.92
2017-05-31T11:38:17.954Z,1015.89
2017-05-31T11:39:19.464Z,1015.95
2017-05-31T11:40:20.948Z,1015.94
2017-05-31T11:41:22.431Z,1015.84
2017-05-31T11:42:23.914Z,1015.94
2017-05-31T11:43:25.404Z,1015.93
2017-05-31T11:44:26.883Z,1015.98
2017-05-31T11:45:28.362Z,1015.91
2017-05-31T11:46:29.850Z,1015.91
2017-05-31T11:47:31.328Z,1015.83
2017-05-31T11:48:32.810Z,1015.91
2017-05-31T11:49:34.293Z,1015.78
2017-05-31T11:50:35.780Z,1015.72
2017-05-31T11:51:37.261Z,1015.73
2017-05-31T11:52:38.750Z,1015.78
2017-05-31T11:53:40.238Z,1015.71
2017-05-31T11:54:41.734Z,1015.65
2017-05-31T11:55:43.212Z,1015.57
2017-05-31T11:56:44.733Z,1015.59
2017-05-31T11:57:46.205Z,1015.54
2017-05-31T11:58:47.691Z,1015.63
2017-05-31T11:59:49.180Z,1015.43
2017-05-31T12:00:50.660Z,1015.66
2017-05-31T12:01:52.144Z,1015.73
2017-05-31T12:02:53.646Z,1015.56
2017-05-31T12:03:55.131Z,1015.47
2017-05-31T12:04:56.610Z,1015.50
2017-05-31T12:05:58.081Z,1015.32
2017-05-31T12:06:59.574Z,1015.28
2017-05-31T12:08:01.052Z,1015.25
2017-05-31T12:09:02.529Z,1015.24
2017-05-31T12:10:04.000Z,1015.21
2017-05-31T12:11:05.477Z,1015.22
2017-05-31T12:12:06.967Z,1015.21
2017-05-31T12:13:08.441Z,1015.23
2017-05-31T12:14:09.917Z,1015.22
2017-05-31T12:15:11.394Z,1015.15
2017-05-31T12:16:12.878Z,1015.16
2017-05-31T12:17:14.349Z,1015.15
2017-05-31T12:18:15.826Z,1015.14
2017-05-31T12:19:17.294Z,1015.07
2017-05-31T12:20:18.770Z,1015.10
2017-05-31T12:21:20.240Z,1015.07
2017-05-31T12:22:21.744Z,1015.05
2017-05-31T12:23:23.214Z,1015.04